Terminal Aerodrome Forecast
Issued by NWS

Home | Current Version | Previous Version | Text Only | Print | Product List | Glossary On
Versions: 1 2 3 4 5 6 7 8 9 10 11 12 13 14 15 16 17 18 19 20 21
000
FTUS44 KLIX 011700 RRA
TAFHUM
TAF
KHUM 011740Z 0118/0218 17008KT P6SM VCSH BKN110
     FM012200 17009KT P6SM VCTS BKN100CB
     FM020000 13004KT P6SM VCSH BKN100
     FM020300 00000KT P6SM BKN100=

USA.gov is the U.S. government's official web portal to all federal, state and local government web resources and services.